»·PEaware :: VHOGF KBOI-KGPI

VHOGF :: KBOI-KGPI

FLIGHT INFORMATION

Flight Status: Arrived
Operator: Unknown
More flights by this operator :: More flights under this callsign
Pilot: Dominic B. (18944)
Aircraft: BOEING 767-300
(B763)
More flights by this aircraft type
Origin: KBOI Boise Air Terminal/Gowen
United States
Destination: KGPI Glacier Park Intl
United States
More flights between these airports :: More routes between these airports
Route: BOI3 BOI DNJ MLP FCA
File this flight plan on PilotEdge
Remarks:
Altitude:
(Current/Filed)
37,000ft
Speed:
(Current/Filed)
454kts
Departed: 23-Jul-22 05:54 PM
Arrived: 23-Jul-22 06:43 PM
Distance/Time
Traveled:
297nm/0:49
Distance/Time
To Go:
Arrived

Flight Plot

Page will automatically refresh every two minutes.

Flight plan parsing failed; only flown route is shown


Map Options




Map Legend


Flown Route
Filed Route
Departure Airport
Arrival Airport
Navaid (VOR, NDB)
Fix

Horizontal Profiles

Position Reports

Time Latitude Longitude Heading Altitude Ground
Speed
23-Jul-22 17:30 43.562255 -116.205313 191 2882ft 0kts
23-Jul-22 17:31 43.562255 -116.205313 191 2882ft 0kts
23-Jul-22 17:32 43.562255 -116.205313 191 2882ft 0kts
23-Jul-22 17:33 43.562255 -116.205313 191 2882ft 0kts
23-Jul-22 17:34 43.562255 -116.205313 191 2882ft 0kts
23-Jul-22 17:35 43.562255 -116.205313 191 2882ft 0kts
23-Jul-22 17:36 43.562255 -116.205313 191 2882ft 0kts
23-Jul-22 17:37 43.562255 -116.205313 191 2882ft 0kts
23-Jul-22 17:38 43.562255 -116.205313 190 2882ft 0kts
23-Jul-22 17:39 43.562255 -116.205313 191 2882ft 0kts
23-Jul-22 17:40 43.562255 -116.205313 191 2882ft 0kts
23-Jul-22 17:41 43.562255 -116.205313 191 2882ft 0kts
23-Jul-22 17:42 43.562255 -116.205313 191 2882ft 0kts
23-Jul-22 17:43 43.562255 -116.205313 191 2882ft 0kts
23-Jul-22 17:45 43.562255 -116.205313 190 2882ft 0kts
23-Jul-22 17:46 43.562254 -116.205313 190 2882ft 0kts
23-Jul-22 17:47 43.562238 -116.205317 190 2882ft 0kts
23-Jul-22 17:48 43.561385 -116.206285 209 2882ft 4kts
23-Jul-22 17:49 43.561514 -116.208362 255 2882ft 13kts
23-Jul-22 17:50 43.559887 -116.209644 203 2882ft 0kts
23-Jul-22 17:51 43.559887 -116.209644 203 2882ft 0kts
23-Jul-22 17:52 43.559885 -116.209645 203 2882ft 0kts
23-Jul-22 17:53 43.559185 -116.210755 287 2882ft 9kts
23-Jul-22 17:54 43.568997 -116.239668 295 2915ft 164kts
23-Jul-22 17:55 43.588250 -116.305185 293 4138ft 224kts
23-Jul-22 17:56 43.614754 -116.399901 291 6465ft 277kts
23-Jul-22 17:57 43.642609 -116.499511 290 9688ft 287kts
23-Jul-22 17:58 43.705377 -116.577340 349 11649ft 354kts
23-Jul-22 17:59 43.799946 -116.529835 23 14691ft 377kts
23-Jul-22 18:00 43.903279 -116.488446 11 17532ft 394kts
23-Jul-22 18:01 44.012638 -116.452894 10 20274ft 411kts
23-Jul-22 18:02 44.126026 -116.416233 9 22799ft 427kts
23-Jul-22 18:03 44.243256 -116.378193 9 25279ft 439kts
23-Jul-22 18:04 44.365239 -116.338455 9 27565ft 452kts
23-Jul-22 18:05 44.490279 -116.297531 9 29689ft 465kts
23-Jul-22 18:06 44.617336 -116.255742 9 31786ft 473kts
23-Jul-22 18:07 44.744870 -116.213622 8 33900ft 472kts
23-Jul-22 18:08 44.873377 -116.184809 1 35703ft 466kts
23-Jul-22 18:09 45.001418 -116.159586 0 37053ft 466kts
23-Jul-22 18:09 45.108794 -116.138088 0 37100ft 464kts
23-Jul-22 18:11 45.259458 -116.107779 1 37099ft 464kts
23-Jul-22 18:12 45.386895 -116.082002 1 37103ft 464kts
23-Jul-22 18:13 45.515462 -116.055880 1 37078ft 463kts
23-Jul-22 18:13 45.623665 -116.033800 1 37079ft 463kts
23-Jul-22 18:14 45.752182 -116.007466 1 37076ft 462kts
23-Jul-22 18:16 45.900883 -115.976840 1 37075ft 461kts
23-Jul-22 18:16 46.006371 -115.955012 1 37076ft 461kts
23-Jul-22 18:17 46.131057 -115.905500 26 37080ft 478kts
23-Jul-22 18:18 46.242559 -115.794592 24 36998ft 479kts
23-Jul-22 18:20 46.379286 -115.685308 23 36945ft 476kts
23-Jul-22 18:20 46.475725 -115.608881 23 36943ft 475kts
23-Jul-22 18:21 46.593488 -115.515176 23 36944ft 475kts
23-Jul-22 18:22 46.709917 -115.422072 23 36946ft 475kts
23-Jul-22 18:23 46.825963 -115.328814 25 34883ft 461kts
23-Jul-22 18:24 46.937685 -115.238613 26 32747ft 456kts
23-Jul-22 18:25 47.048869 -115.148388 26 30596ft 455kts
23-Jul-22 18:26 47.156492 -115.060629 26 28468ft 439kts
23-Jul-22 18:27 47.261524 -114.974602 26 26395ft 425kts
23-Jul-22 18:28 47.363785 -114.890465 26 24395ft 412kts
23-Jul-22 18:29 47.461880 -114.809407 26 22508ft 401kts
23-Jul-22 18:30 47.555440 -114.731793 27 20044ft 379kts
23-Jul-22 18:31 47.648042 -114.654639 27 17575ft 387kts
23-Jul-22 18:32 47.742457 -114.575612 27 15033ft 370kts
23-Jul-22 18:33 47.830296 -114.517968 20 12511ft 327kts
23-Jul-22 18:34 47.914588 -114.465560 20 10375ft 332kts
23-Jul-22 18:35 48.000024 -114.415710 12 8969ft 314kts
23-Jul-22 18:36 48.080805 -114.400957 3 7598ft 277kts
23-Jul-22 18:37 48.154715 -114.391469 3 5937ft 252kts
23-Jul-22 18:38 48.212255 -114.357740 35 5012ft 205kts
23-Jul-22 18:39 48.252889 -114.315372 34 4032ft 153kts
23-Jul-22 18:40 48.287029 -114.279879 35 3285ft 149kts
23-Jul-22 18:41 48.314426 -114.251369 34 2979ft 41kts
23-Jul-22 18:42 48.317700 -114.247623 94 2982ft 0kts
23-Jul-22 18:43 48.315622 -114.246637 175 2981ft 1kts
23-Jul-22 18:44 48.315622 -114.246637 175 2981ft 0kts
23-Jul-22 18:45 48.315621 -114.246637 175 2981ft 0kts
23-Jul-22 18:46 48.315622 -114.246637 175 2981ft 0kts
23-Jul-22 18:47 48.315622 -114.246637 175 2981ft 0kts

Navigation Log

Ident Type
Flight plan parsing failed, navigation log unavailable